sensor_id;sensor_type;location;lat;lon;timestamp;P1;durP1;ratioP1;P2;durP2;ratioP2
18265;SDS011;9259;48.194;16.322;2023-01-19T00:01:40;8.80;;;4.80;;
18265;SDS011;9259;48.194;16.322;2023-01-19T00:04:08;9.70;;;5.40;;
18265;SDS011;9259;48.194;16.322;2023-01-19T00:06:36;8.17;;;5.00;;
18265;SDS011;9259;48.194;16.322;2023-01-19T00:09:04;8.70;;;4.53;;
18265;SDS011;9259;48.194;16.322;2023-01-19T00:11:32;7.70;;;4.90;;
18265;SDS011;9259;48.194;16.322;2023-01-19T00:14:00;8.67;;;4.77;;
18265;SDS011;9259;48.194;16.322;2023-01-19T00:16:30;9.77;;;5.47;;
18265;SDS011;9259;48.194;16.322;2023-01-19T00:18:58;10.27;;;5.80;;
18265;SDS011;9259;48.194;16.322;2023-01-19T00:21:26;10.57;;;5.47;;
18265;SDS011;9259;48.194;16.322;2023-01-19T00:23:54;10.07;;;5.37;;
18265;SDS011;9259;48.194;16.322;2023-01-19T00:26:22;10.97;;;5.27;;
18265;SDS011;9259;48.194;16.322;2023-01-19T00:28:51;7.70;;;4.50;;
18265;SDS011;9259;48.194;16.322;2023-01-19T00:31:19;9.23;;;5.30;;
18265;SDS011;9259;48.194;16.322;2023-01-19T00:33:48;10.50;;;4.80;;
18265;SDS011;9259;48.194;16.322;2023-01-19T00:36:17;10.03;;;5.00;;
18265;SDS011;9259;48.194;16.322;2023-01-19T00:38:46;10.20;;;5.77;;
18265;SDS011;9259;48.194;16.322;2023-01-19T00:41:14;9.13;;;5.33;;
18265;SDS011;9259;48.194;16.322;2023-01-19T00:43:42;10.97;;;6.20;;
18265;SDS011;9259;48.194;16.322;2023-01-19T00:46:09;12.37;;;5.67;;
18265;SDS011;9259;48.194;16.322;2023-01-19T00:48:37;10.67;;;6.23;;
18265;SDS011;9259;48.194;16.322;2023-01-19T00:51:07;9.83;;;5.63;;
18265;SDS011;9259;48.194;16.322;2023-01-19T00:53:35;8.37;;;5.40;;
18265;SDS011;9259;48.194;16.322;2023-01-19T00:56:03;10.27;;;5.93;;
18265;SDS011;9259;48.194;16.322;2023-01-19T00:58:32;11.73;;;6.13;;
18265;SDS011;9259;48.194;16.322;2023-01-19T01:01:00;11.23;;;5.77;;
18265;SDS011;9259;48.194;16.322;2023-01-19T01:03:29;10.93;;;6.33;;
18265;SDS011;9259;48.194;16.322;2023-01-19T01:05:57;9.67;;;5.67;;
18265;SDS011;9259;48.194;16.322;2023-01-19T01:08:27;10.00;;;5.40;;
18265;SDS011;9259;48.194;16.322;2023-01-19T01:10:55;10.97;;;6.17;;
18265;SDS011;9259;48.194;16.322;2023-01-19T01:13:23;12.93;;;6.17;;
18265;SDS011;9259;48.194;16.322;2023-01-19T01:15:52;12.10;;;5.93;;
18265;SDS011;9259;48.194;16.322;2023-01-19T01:18:21;10.80;;;5.80;;
18265;SDS011;9259;48.194;16.322;2023-01-19T01:20:50;11.53;;;5.77;;
18265;SDS011;9259;48.194;16.322;2023-01-19T01:23:18;12.17;;;5.83;;
18265;SDS011;9259;48.194;16.322;2023-01-19T01:25:48;12.80;;;6.40;;
18265;SDS011;9259;48.194;16.322;2023-01-19T01:28:16;15.03;;;6.50;;
18265;SDS011;9259;48.194;16.322;2023-01-19T01:30:45;12.13;;;6.00;;
18265;SDS011;9259;48.194;16.322;2023-01-19T01:33:13;13.07;;;6.83;;
18265;SDS011;9259;48.194;16.322;2023-01-19T01:35:41;11.80;;;6.10;;
18265;SDS011;9259;48.194;16.322;2023-01-19T01:38:09;11.27;;;5.93;;
18265;SDS011;9259;48.194;16.322;2023-01-19T01:40:38;10.80;;;6.30;;
18265;SDS011;9259;48.194;16.322;2023-01-19T01:43:09;10.93;;;6.37;;
18265;SDS011;9259;48.194;16.322;2023-01-19T01:45:38;10.60;;;6.10;;
18265;SDS011;9259;48.194;16.322;2023-01-19T01:48:08;12.63;;;6.73;;
18265;SDS011;9259;48.194;16.322;2023-01-19T01:50:39;10.00;;;5.57;;
18265;SDS011;9259;48.194;16.322;2023-01-19T01:53:29;14.00;;;6.70;;
18265;SDS011;9259;48.194;16.322;2023-01-19T01:55:59;10.67;;;5.53;;
18265;SDS011;9259;48.194;16.322;2023-01-19T01:58:32;11.47;;;5.93;;
18265;SDS011;9259;48.194;16.322;2023-01-19T02:01:01;9.97;;;5.97;;
18265;SDS011;9259;48.194;16.322;2023-01-19T02:03:47;11.30;;;5.87;;
18265;SDS011;9259;48.194;16.322;2023-01-19T02:06:15;11.90;;;6.43;;
18265;SDS011;9259;48.194;16.322;2023-01-19T02:08:45;9.67;;;5.73;;
18265;SDS011;9259;48.194;16.322;2023-01-19T02:11:33;11.73;;;6.17;;
18265;SDS011;9259;48.194;16.322;2023-01-19T02:14:21;10.07;;;5.67;;
18265;SDS011;9259;48.194;16.322;2023-01-19T02:16:49;11.63;;;6.10;;
18265;SDS011;9259;48.194;16.322;2023-01-19T02:19:19;10.27;;;5.13;;
18265;SDS011;9259;48.194;16.322;2023-01-19T02:21:51;9.63;;;5.50;;
18265;SDS011;9259;48.194;16.322;2023-01-19T02:24:22;10.13;;;5.80;;
18265;SDS011;9259;48.194;16.322;2023-01-19T02:26:52;10.90;;;5.60;;
18265;SDS011;9259;48.194;16.322;2023-01-19T02:29:20;9.27;;;5.43;;
18265;SDS011;9259;48.194;16.322;2023-01-19T02:31:50;10.33;;;6.00;;
18265;SDS011;9259;48.194;16.322;2023-01-19T02:34:20;9.83;;;5.47;;
18265;SDS011;9259;48.194;16.322;2023-01-19T02:36:49;13.10;;;6.33;;
18265;SDS011;9259;48.194;16.322;2023-01-19T02:39:21;10.60;;;5.50;;
18265;SDS011;9259;48.194;16.322;2023-01-19T02:41:53;9.13;;;5.83;;
18265;SDS011;9259;48.194;16.322;2023-01-19T02:44:24;9.97;;;5.77;;
18265;SDS011;9259;48.194;16.322;2023-01-19T02:46:53;11.63;;;5.33;;
18265;SDS011;9259;48.194;16.322;2023-01-19T02:49:21;11.70;;;6.17;;
18265;SDS011;9259;48.194;16.322;2023-01-19T02:51:51;11.37;;;6.10;;
18265;SDS011;9259;48.194;16.322;2023-01-19T02:54:33;11.50;;;6.13;;
18265;SDS011;9259;48.194;16.322;2023-01-19T02:57:12;9.07;;;5.50;;
18265;SDS011;9259;48.194;16.322;2023-01-19T02:59:49;9.47;;;5.57;;
18265;SDS011;9259;48.194;16.322;2023-01-19T03:02:26;12.70;;;5.97;;
18265;SDS011;9259;48.194;16.322;2023-01-19T03:05:07;10.87;;;6.03;;
18265;SDS011;9259;48.194;16.322;2023-01-19T03:07:53;12.63;;;5.97;;
18265;SDS011;9259;48.194;16.322;2023-01-19T03:10:29;10.60;;;6.13;;
18265;SDS011;9259;48.194;16.322;2023-01-19T03:13:07;10.63;;;6.57;;
18265;SDS011;9259;48.194;16.322;2023-01-19T03:15:38;11.53;;;5.97;;
18265;SDS011;9259;48.194;16.322;2023-01-19T03:18:09;10.10;;;6.13;;
18265;SDS011;9259;48.194;16.322;2023-01-19T03:20:39;10.63;;;6.00;;
18265;SDS011;9259;48.194;16.322;2023-01-19T03:23:09;10.33;;;6.20;;
18265;SDS011;9259;48.194;16.322;2023-01-19T03:25:40;13.37;;;5.97;;
18265;SDS011;9259;48.194;16.322;2023-01-19T03:28:10;10.63;;;5.97;;
18265;SDS011;9259;48.194;16.322;2023-01-19T03:30:41;12.97;;;6.67;;
18265;SDS011;9259;48.194;16.322;2023-01-19T03:33:12;11.87;;;6.33;;
18265;SDS011;9259;48.194;16.322;2023-01-19T03:35:44;10.40;;;5.77;;
18265;SDS011;9259;48.194;16.322;2023-01-19T03:38:16;10.13;;;5.87;;
18265;SDS011;9259;48.194;16.322;2023-01-19T03:40:48;11.87;;;6.37;;
18265;SDS011;9259;48.194;16.322;2023-01-19T03:43:17;11.27;;;6.23;;
18265;SDS011;9259;48.194;16.322;2023-01-19T03:45:45;12.63;;;6.30;;
18265;SDS011;9259;48.194;16.322;2023-01-19T03:48:14;11.47;;;6.60;;
18265;SDS011;9259;48.194;16.322;2023-01-19T03:50:42;15.50;;;6.33;;
18265;SDS011;9259;48.194;16.322;2023-01-19T03:53:11;14.47;;;6.70;;
18265;SDS011;9259;48.194;16.322;2023-01-19T03:55:41;13.93;;;6.70;;
18265;SDS011;9259;48.194;16.322;2023-01-19T03:58:12;12.70;;;6.40;;
18265;SDS011;9259;48.194;16.322;2023-01-19T04:00:41;12.87;;;6.30;;
18265;SDS011;9259;48.194;16.322;2023-01-19T04:03:10;12.13;;;6.43;;
18265;SDS011;9259;48.194;16.322;2023-01-19T04:05:40;13.20;;;7.07;;
18265;SDS011;9259;48.194;16.322;2023-01-19T04:08:09;13.67;;;7.10;;
18265;SDS011;9259;48.194;16.322;2023-01-19T04:10:37;12.00;;;6.77;;
18265;SDS011;9259;48.194;16.322;2023-01-19T04:13:05;13.20;;;6.43;;
18265;SDS011;9259;48.194;16.322;2023-01-19T04:15:35;12.60;;;6.77;;
18265;SDS011;9259;48.194;16.322;2023-01-19T04:18:03;13.33;;;7.10;;
18265;SDS011;9259;48.194;16.322;2023-01-19T04:20:32;12.47;;;6.87;;
18265;SDS011;9259;48.194;16.322;2023-01-19T04:23:00;11.03;;;6.67;;
18265;SDS011;9259;48.194;16.322;2023-01-19T04:25:28;11.33;;;6.73;;
18265;SDS011;9259;48.194;16.322;2023-01-19T04:27:56;12.40;;;7.03;;
18265;SDS011;9259;48.194;16.322;2023-01-19T04:30:25;12.87;;;7.03;;
18265;SDS011;9259;48.194;16.322;2023-01-19T04:32:54;13.33;;;6.73;;
18265;SDS011;9259;48.194;16.322;2023-01-19T04:35:24;12.43;;;6.30;;
18265;SDS011;9259;48.194;16.322;2023-01-19T04:37:52;11.03;;;6.10;;
18265;SDS011;9259;48.194;16.322;2023-01-19T04:40:20;13.67;;;6.97;;
18265;SDS011;9259;48.194;16.322;2023-01-19T04:42:49;10.63;;;6.27;;
18265;SDS011;9259;48.194;16.322;2023-01-19T04:45:17;13.03;;;6.40;;
18265;SDS011;9259;48.194;16.322;2023-01-19T04:47:45;12.10;;;6.83;;
18265;SDS011;9259;48.194;16.322;2023-01-19T04:50:15;11.33;;;6.70;;
18265;SDS011;9259;48.194;16.322;2023-01-19T04:52:43;11.83;;;6.77;;
18265;SDS011;9259;48.194;16.322;2023-01-19T04:55:13;11.97;;;6.63;;
18265;SDS011;9259;48.194;16.322;2023-01-19T04:57:41;14.67;;;7.37;;
18265;SDS011;9259;48.194;16.322;2023-01-19T05:00:10;14.07;;;6.67;;
18265;SDS011;9259;48.194;16.322;2023-01-19T05:02:39;13.60;;;7.17;;
18265;SDS011;9259;48.194;16.322;2023-01-19T05:05:10;14.13;;;7.33;;
18265;SDS011;9259;48.194;16.322;2023-01-19T05:07:39;14.00;;;7.27;;
18265;SDS011;9259;48.194;16.322;2023-01-19T05:10:08;15.23;;;7.73;;
18265;SDS011;9259;48.194;16.322;2023-01-19T05:12:37;13.97;;;7.83;;
18265;SDS011;9259;48.194;16.322;2023-01-19T05:15:07;15.23;;;7.40;;
18265;SDS011;9259;48.194;16.322;2023-01-19T05:17:36;14.13;;;7.13;;
18265;SDS011;9259;48.194;16.322;2023-01-19T05:20:05;13.87;;;7.90;;
18265;SDS011;9259;48.194;16.322;2023-01-19T05:22:34;13.67;;;7.60;;
18265;SDS011;9259;48.194;16.322;2023-01-19T05:25:05;15.07;;;8.30;;
18265;SDS011;9259;48.194;16.322;2023-01-19T05:27:34;15.37;;;8.13;;
18265;SDS011;9259;48.194;16.322;2023-01-19T05:30:03;18.13;;;8.67;;
18265;SDS011;9259;48.194;16.322;2023-01-19T05:32:32;16.07;;;8.20;;
18265;SDS011;9259;48.194;16.322;2023-01-19T05:35:00;15.60;;;8.00;;
18265;SDS011;9259;48.194;16.322;2023-01-19T05:37:28;16.27;;;8.17;;
18265;SDS011;9259;48.194;16.322;2023-01-19T05:39:57;18.63;;;8.70;;
18265;SDS011;9259;48.194;16.322;2023-01-19T05:42:26;20.77;;;9.13;;
18265;SDS011;9259;48.194;16.322;2023-01-19T05:44:54;14.67;;;8.43;;
18265;SDS011;9259;48.194;16.322;2023-01-19T05:47:24;17.17;;;9.30;;
18265;SDS011;9259;48.194;16.322;2023-01-19T05:49:52;16.63;;;8.77;;
18265;SDS011;9259;48.194;16.322;2023-01-19T05:52:20;16.13;;;8.70;;
18265;SDS011;9259;48.194;16.322;2023-01-19T05:54:49;17.53;;;8.93;;
18265;SDS011;9259;48.194;16.322;2023-01-19T05:57:19;16.33;;;9.33;;
18265;SDS011;9259;48.194;16.322;2023-01-19T05:59:49;15.87;;;8.77;;
18265;SDS011;9259;48.194;16.322;2023-01-19T06:02:17;15.77;;;8.53;;
18265;SDS011;9259;48.194;16.322;2023-01-19T06:04:53;18.93;;;8.83;;
18265;SDS011;9259;48.194;16.322;2023-01-19T06:07:21;17.60;;;8.97;;
18265;SDS011;9259;48.194;16.322;2023-01-19T06:09:50;18.80;;;10.07;;
18265;SDS011;9259;48.194;16.322;2023-01-19T06:12:18;18.90;;;10.40;;
18265;SDS011;9259;48.194;16.322;2023-01-19T06:14:46;19.20;;;9.30;;
18265;SDS011;9259;48.194;16.322;2023-01-19T06:17:16;18.30;;;9.47;;
18265;SDS011;9259;48.194;16.322;2023-01-19T06:19:45;15.90;;;8.30;;
18265;SDS011;9259;48.194;16.322;2023-01-19T06:22:13;20.37;;;9.47;;
18265;SDS011;9259;48.194;16.322;2023-01-19T06:24:41;18.40;;;9.03;;
18265;SDS011;9259;48.194;16.322;2023-01-19T06:27:09;18.10;;;8.77;;
18265;SDS011;9259;48.194;16.322;2023-01-19T06:29:38;18.70;;;9.67;;
18265;SDS011;9259;48.194;16.322;2023-01-19T06:32:07;17.83;;;9.00;;
18265;SDS011;9259;48.194;16.322;2023-01-19T06:34:36;22.67;;;9.90;;
18265;SDS011;9259;48.194;16.322;2023-01-19T06:37:08;17.27;;;9.13;;
18265;SDS011;9259;48.194;16.322;2023-01-19T06:39:36;18.00;;;8.93;;
18265;SDS011;9259;48.194;16.322;2023-01-19T06:42:05;17.43;;;8.83;;
18265;SDS011;9259;48.194;16.322;2023-01-19T06:44:33;19.87;;;9.00;;
18265;SDS011;9259;48.194;16.322;2023-01-19T06:47:02;15.50;;;8.27;;
18265;SDS011;9259;48.194;16.322;2023-01-19T06:49:31;16.90;;;8.63;;
18265;SDS011;9259;48.194;16.322;2023-01-19T06:51:59;16.40;;;8.27;;
18265;SDS011;9259;48.194;16.322;2023-01-19T06:54:27;14.73;;;8.47;;
18265;SDS011;9259;48.194;16.322;2023-01-19T06:56:56;14.33;;;7.67;;
18265;SDS011;9259;48.194;16.322;2023-01-19T06:59:24;16.93;;;9.03;;
18265;SDS011;9259;48.194;16.322;2023-01-19T07:01:52;15.80;;;8.20;;
18265;SDS011;9259;48.194;16.322;2023-01-19T07:04:21;15.93;;;8.40;;
18265;SDS011;9259;48.194;16.322;2023-01-19T07:06:50;15.30;;;8.83;;
18265;SDS011;9259;48.194;16.322;2023-01-19T07:09:18;17.07;;;8.70;;
18265;SDS011;9259;48.194;16.322;2023-01-19T07:11:47;18.30;;;8.13;;
18265;SDS011;9259;48.194;16.322;2023-01-19T07:14:15;15.73;;;8.50;;
18265;SDS011;9259;48.194;16.322;2023-01-19T07:16:43;19.87;;;9.30;;
18265;SDS011;9259;48.194;16.322;2023-01-19T07:19:12;14.90;;;7.70;;
18265;SDS011;9259;48.194;16.322;2023-01-19T07:21:40;15.63;;;7.90;;
18265;SDS011;9259;48.194;16.322;2023-01-19T07:24:09;17.07;;;7.77;;
18265;SDS011;9259;48.194;16.322;2023-01-19T07:26:37;15.37;;;7.67;;
18265;SDS011;9259;48.194;16.322;2023-01-19T07:29:06;14.50;;;7.43;;
18265;SDS011;9259;48.194;16.322;2023-01-19T07:31:34;14.00;;;7.47;;
18265;SDS011;9259;48.194;16.322;2023-01-19T07:34:02;14.20;;;7.80;;
18265;SDS011;9259;48.194;16.322;2023-01-19T07:36:31;15.93;;;7.87;;
18265;SDS011;9259;48.194;16.322;2023-01-19T07:39:00;16.17;;;7.93;;
18265;SDS011;9259;48.194;16.322;2023-01-19T07:41:30;20.50;;;7.40;;
18265;SDS011;9259;48.194;16.322;2023-01-19T07:43:58;15.63;;;7.77;;
18265;SDS011;9259;48.194;16.322;2023-01-19T07:46:26;15.10;;;7.80;;
18265;SDS011;9259;48.194;16.322;2023-01-19T07:48:54;14.33;;;7.83;;
18265;SDS011;9259;48.194;16.322;2023-01-19T07:51:22;12.90;;;7.47;;
18265;SDS011;9259;48.194;16.322;2023-01-19T07:53:52;16.93;;;8.43;;
18265;SDS011;9259;48.194;16.322;2023-01-19T07:56:20;14.50;;;7.47;;
18265;SDS011;9259;48.194;16.322;2023-01-19T07:58:50;13.00;;;6.80;;
18265;SDS011;9259;48.194;16.322;2023-01-19T08:01:18;12.47;;;6.70;;
18265;SDS011;9259;48.194;16.322;2023-01-19T08:03:47;13.73;;;7.70;;
18265;SDS011;9259;48.194;16.322;2023-01-19T08:06:16;16.50;;;8.20;;
18265;SDS011;9259;48.194;16.322;2023-01-19T08:08:47;17.07;;;8.17;;
18265;SDS011;9259;48.194;16.322;2023-01-19T08:11:15;14.63;;;7.77;;
18265;SDS011;9259;48.194;16.322;2023-01-19T08:13:43;13.97;;;7.77;;
18265;SDS011;9259;48.194;16.322;2023-01-19T08:16:13;16.27;;;8.43;;
18265;SDS011;9259;48.194;16.322;2023-01-19T08:18:41;12.90;;;7.33;;
18265;SDS011;9259;48.194;16.322;2023-01-19T08:21:09;16.10;;;8.27;;
18265;SDS011;9259;48.194;16.322;2023-01-19T08:23:37;15.03;;;7.90;;
18265;SDS011;9259;48.194;16.322;2023-01-19T08:26:16;16.37;;;7.73;;
18265;SDS011;9259;48.194;16.322;2023-01-19T08:28:44;17.50;;;9.10;;
18265;SDS011;9259;48.194;16.322;2023-01-19T08:31:14;19.23;;;8.60;;
18265;SDS011;9259;48.194;16.322;2023-01-19T08:33:42;20.63;;;8.93;;
18265;SDS011;9259;48.194;16.322;2023-01-19T08:36:10;13.33;;;7.73;;
18265;SDS011;9259;48.194;16.322;2023-01-19T08:38:38;15.87;;;8.07;;
18265;SDS011;9259;48.194;16.322;2023-01-19T08:41:09;16.23;;;8.53;;
18265;SDS011;9259;48.194;16.322;2023-01-19T08:43:37;14.47;;;8.57;;
18265;SDS011;9259;48.194;16.322;2023-01-19T08:46:06;14.00;;;7.70;;
18265;SDS011;9259;48.194;16.322;2023-01-19T08:48:35;13.97;;;7.67;;
18265;SDS011;9259;48.194;16.322;2023-01-19T08:51:03;15.67;;;7.33;;
18265;SDS011;9259;48.194;16.322;2023-01-19T08:53:32;15.83;;;7.77;;
18265;SDS011;9259;48.194;16.322;2023-01-19T08:56:00;14.43;;;6.87;;
18265;SDS011;9259;48.194;16.322;2023-01-19T08:58:28;13.73;;;7.27;;
18265;SDS011;9259;48.194;16.322;2023-01-19T09:00:58;15.23;;;7.90;;
18265;SDS011;9259;48.194;16.322;2023-01-19T09:03:26;13.83;;;6.87;;
18265;SDS011;9259;48.194;16.322;2023-01-19T09:05:56;12.53;;;7.30;;
18265;SDS011;9259;48.194;16.322;2023-01-19T09:08:24;15.00;;;7.57;;
18265;SDS011;9259;48.194;16.322;2023-01-19T09:10:52;13.10;;;6.97;;
18265;SDS011;9259;48.194;16.322;2023-01-19T09:13:20;12.37;;;6.77;;
18265;SDS011;9259;48.194;16.322;2023-01-19T09:15:49;14.17;;;7.57;;
18265;SDS011;9259;48.194;16.322;2023-01-19T09:18:18;16.27;;;7.40;;
18265;SDS011;9259;48.194;16.322;2023-01-19T09:20:48;12.00;;;6.23;;
18265;SDS011;9259;48.194;16.322;2023-01-19T09:23:18;12.83;;;6.83;;
18265;SDS011;9259;48.194;16.322;2023-01-19T09:25:47;11.33;;;6.63;;
18265;SDS011;9259;48.194;16.322;2023-01-19T09:28:21;12.20;;;6.40;;
18265;SDS011;9259;48.194;16.322;2023-01-19T09:30:49;10.37;;;5.33;;
18265;SDS011;9259;48.194;16.322;2023-01-19T09:33:18;12.60;;;5.37;;
18265;SDS011;9259;48.194;16.322;2023-01-19T09:35:47;10.07;;;4.97;;
18265;SDS011;9259;48.194;16.322;2023-01-19T09:38:18;11.23;;;5.17;;
18265;SDS011;9259;48.194;16.322;2023-01-19T09:40:47;12.10;;;5.80;;
18265;SDS011;9259;48.194;16.322;2023-01-19T09:43:19;14.57;;;5.77;;
18265;SDS011;9259;48.194;16.322;2023-01-19T09:45:54;12.70;;;6.33;;
18265;SDS011;9259;48.194;16.322;2023-01-19T09:48:29;8.53;;;5.13;;
18265;SDS011;9259;48.194;16.322;2023-01-19T09:51:03;10.13;;;5.37;;
18265;SDS011;9259;48.194;16.322;2023-01-19T09:53:37;11.87;;;5.30;;
18265;SDS011;9259;48.194;16.322;2023-01-19T09:56:12;11.03;;;5.47;;
18265;SDS011;9259;48.194;16.322;2023-01-19T09:58:42;10.03;;;5.67;;
18265;SDS011;9259;48.194;16.322;2023-01-19T10:01:14;11.33;;;5.43;;
18265;SDS011;9259;48.194;16.322;2023-01-19T10:03:53;10.53;;;5.47;;
18265;SDS011;9259;48.194;16.322;2023-01-19T10:07:05;11.83;;;5.77;;
18265;SDS011;9259;48.194;16.322;2023-01-19T10:09:40;10.73;;;5.93;;
18265;SDS011;9259;48.194;16.322;2023-01-19T10:12:19;11.73;;;4.63;;
18265;SDS011;9259;48.194;16.322;2023-01-19T10:14:53;12.07;;;5.47;;
18265;SDS011;9259;48.194;16.322;2023-01-19T10:17:30;9.13;;;5.13;;
18265;SDS011;9259;48.194;16.322;2023-01-19T10:20:06;11.00;;;5.07;;
18265;SDS011;9259;48.194;16.322;2023-01-19T10:22:39;11.37;;;5.33;;
18265;SDS011;9259;48.194;16.322;2023-01-19T10:25:13;11.27;;;6.00;;
18265;SDS011;9259;48.194;16.322;2023-01-19T10:27:45;12.87;;;6.60;;
18265;SDS011;9259;48.194;16.322;2023-01-19T10:30:15;15.43;;;6.53;;
18265;SDS011;9259;48.194;16.322;2023-01-19T10:32:48;11.23;;;6.13;;
18265;SDS011;9259;48.194;16.322;2023-01-19T10:35:17;16.30;;;7.43;;
18265;SDS011;9259;48.194;16.322;2023-01-19T10:37:49;12.43;;;7.70;;
18265;SDS011;9259;48.194;16.322;2023-01-19T10:40:21;13.13;;;6.93;;
18265;SDS011;9259;48.194;16.322;2023-01-19T10:42:53;14.10;;;6.70;;
18265;SDS011;9259;48.194;16.322;2023-01-19T10:45:22;14.13;;;6.60;;
18265;SDS011;9259;48.194;16.322;2023-01-19T10:47:53;10.70;;;6.17;;
18265;SDS011;9259;48.194;16.322;2023-01-19T10:50:24;12.90;;;6.17;;
18265;SDS011;9259;48.194;16.322;2023-01-19T10:52:54;14.50;;;6.50;;
18265;SDS011;9259;48.194;16.322;2023-01-19T10:55:27;14.47;;;6.10;;
18265;SDS011;9259;48.194;16.322;2023-01-19T10:57:56;11.23;;;5.43;;
18265;SDS011;9259;48.194;16.322;2023-01-19T11:00:28;10.43;;;5.67;;
18265;SDS011;9259;48.194;16.322;2023-01-19T11:02:59;11.70;;;5.27;;
18265;SDS011;9259;48.194;16.322;2023-01-19T11:05:28;13.07;;;6.03;;
18265;SDS011;9259;48.194;16.322;2023-01-19T11:07:57;15.17;;;5.93;;
18265;SDS011;9259;48.194;16.322;2023-01-19T11:10:27;10.20;;;5.60;;
18265;SDS011;9259;48.194;16.322;2023-01-19T11:12:58;11.13;;;5.07;;
18265;SDS011;9259;48.194;16.322;2023-01-19T11:15:29;8.03;;;4.60;;
18265;SDS011;9259;48.194;16.322;2023-01-19T11:17:59;21.80;;;5.37;;
18265;SDS011;9259;48.194;16.322;2023-01-19T11:20:30;10.13;;;4.10;;
18265;SDS011;9259;48.194;16.322;2023-01-19T11:23:17;10.80;;;4.90;;
18265;SDS011;9259;48.194;16.322;2023-01-19T11:25:49;7.93;;;4.03;;
18265;SDS011;9259;48.194;16.322;2023-01-19T11:28:18;7.67;;;3.70;;
18265;SDS011;9259;48.194;16.322;2023-01-19T11:30:54;6.77;;;3.40;;
18265;SDS011;9259;48.194;16.322;2023-01-19T11:33:24;6.13;;;2.93;;
18265;SDS011;9259;48.194;16.322;2023-01-19T11:36:00;7.03;;;3.43;;
18265;SDS011;9259;48.194;16.322;2023-01-19T11:38:30;6.40;;;3.40;;
18265;SDS011;9259;48.194;16.322;2023-01-19T11:41:00;6.00;;;3.63;;
18265;SDS011;9259;48.194;16.322;2023-01-19T11:43:31;6.30;;;3.50;;
18265;SDS011;9259;48.194;16.322;2023-01-19T11:45:59;7.00;;;3.53;;
18265;SDS011;9259;48.194;16.322;2023-01-19T11:48:28;6.67;;;3.70;;
18265;SDS011;9259;48.194;16.322;2023-01-19T11:51:00;9.30;;;4.00;;
18265;SDS011;9259;48.194;16.322;2023-01-19T11:53:31;8.70;;;4.03;;
18265;SDS011;9259;48.194;16.322;2023-01-19T11:56:02;8.27;;;3.80;;
18265;SDS011;9259;48.194;16.322;2023-01-19T11:58:38;7.23;;;3.70;;
18265;SDS011;9259;48.194;16.322;2023-01-19T12:01:10;9.10;;;3.60;;
18265;SDS011;9259;48.194;16.322;2023-01-19T12:03:45;8.90;;;3.37;;
18265;SDS011;9259;48.194;16.322;2023-01-19T12:06:18;6.27;;;3.60;;
18265;SDS011;9259;48.194;16.322;2023-01-19T12:08:49;8.03;;;3.23;;
18265;SDS011;9259;48.194;16.322;2023-01-19T12:11:22;5.93;;;2.83;;
18265;SDS011;9259;48.194;16.322;2023-01-19T12:14:14;5.97;;;3.07;;
18265;SDS011;9259;48.194;16.322;2023-01-19T12:16:45;6.10;;;3.10;;
18265;SDS011;9259;48.194;16.322;2023-01-19T12:19:14;6.90;;;2.93;;
18265;SDS011;9259;48.194;16.322;2023-01-19T12:21:44;10.03;;;3.13;;
18265;SDS011;9259;48.194;16.322;2023-01-19T12:24:14;6.10;;;3.13;;
18265;SDS011;9259;48.194;16.322;2023-01-19T12:26:47;8.17;;;3.53;;
18265;SDS011;9259;48.194;16.322;2023-01-19T12:29:19;9.37;;;3.70;;
18265;SDS011;9259;48.194;16.322;2023-01-19T12:34:44;6.70;;;3.57;;
18265;SDS011;9259;48.194;16.322;2023-01-19T12:40:16;8.03;;;3.57;;
18265;SDS011;9259;48.194;16.322;2023-01-19T12:42:50;9.17;;;4.07;;
18265;SDS011;9259;48.194;16.322;2023-01-19T12:45:28;9.67;;;4.07;;
18265;SDS011;9259;48.194;16.322;2023-01-19T12:47:57;9.93;;;4.47;;
18265;SDS011;9259;48.194;16.322;2023-01-19T12:50:33;8.70;;;4.20;;
18265;SDS011;9259;48.194;16.322;2023-01-19T12:53:03;11.07;;;4.47;;
18265;SDS011;9259;48.194;16.322;2023-01-19T12:55:42;7.70;;;4.13;;
18265;SDS011;9259;48.194;16.322;2023-01-19T12:58:14;9.23;;;4.30;;
18265;SDS011;9259;48.194;16.322;2023-01-19T13:00:44;10.33;;;4.70;;
18265;SDS011;9259;48.194;16.322;2023-01-19T13:06:09;9.90;;;5.23;;
18265;SDS011;9259;48.194;16.322;2023-01-19T13:11:25;10.27;;;5.63;;
18265;SDS011;9259;48.194;16.322;2023-01-19T13:17:05;14.90;;;8.77;;
18265;SDS011;9259;48.194;16.322;2023-01-19T13:19:59;20.30;;;10.27;;
18265;SDS011;9259;48.194;16.322;2023-01-19T13:25:48;22.27;;;11.57;;
18265;SDS011;9259;48.194;16.322;2023-01-19T13:28:18;23.27;;;11.70;;
18265;SDS011;9259;48.194;16.322;2023-01-19T13:30:55;34.60;;;12.27;;
18265;SDS011;9259;48.194;16.322;2023-01-19T13:33:27;23.67;;;11.70;;
18265;SDS011;9259;48.194;16.322;2023-01-19T13:35:59;27.13;;;12.13;;
18265;SDS011;9259;48.194;16.322;2023-01-19T13:38:27;30.03;;;12.93;;
18265;SDS011;9259;48.194;16.322;2023-01-19T13:40:57;27.37;;;12.37;;
18265;SDS011;9259;48.194;16.322;2023-01-19T13:43:27;30.30;;;12.77;;
18265;SDS011;9259;48.194;16.322;2023-01-19T13:45:58;26.43;;;12.73;;
18265;SDS011;9259;48.194;16.322;2023-01-19T13:48:28;29.90;;;12.53;;
18265;SDS011;9259;48.194;16.322;2023-01-19T13:50:59;27.90;;;12.77;;
18265;SDS011;9259;48.194;16.322;2023-01-19T13:53:28;25.90;;;11.63;;
18265;SDS011;9259;48.194;16.322;2023-01-19T13:58:59;25.03;;;11.47;;
18265;SDS011;9259;48.194;16.322;2023-01-19T14:01:35;27.80;;;11.93;;
18265;SDS011;9259;48.194;16.322;2023-01-19T14:04:14;25.37;;;12.23;;
18265;SDS011;9259;48.194;16.322;2023-01-19T14:06:51;26.47;;;12.87;;
18265;SDS011;9259;48.194;16.322;2023-01-19T14:09:20;25.70;;;11.40;;
18265;SDS011;9259;48.194;16.322;2023-01-19T14:12:03;26.70;;;12.13;;
18265;SDS011;9259;48.194;16.322;2023-01-19T14:14:42;26.83;;;11.50;;
18265;SDS011;9259;48.194;16.322;2023-01-19T14:17:17;26.20;;;12.47;;
18265;SDS011;9259;48.194;16.322;2023-01-19T14:19:53;27.33;;;11.70;;
18265;SDS011;9259;48.194;16.322;2023-01-19T14:22:35;26.37;;;11.67;;
18265;SDS011;9259;48.194;16.322;2023-01-19T14:31:16;29.07;;;12.60;;
18265;SDS011;9259;48.194;16.322;2023-01-19T14:33:46;26.10;;;11.73;;
18265;SDS011;9259;48.194;16.322;2023-01-19T14:39:12;27.60;;;11.10;;
18265;SDS011;9259;48.194;16.322;2023-01-19T14:41:42;31.23;;;13.00;;
18265;SDS011;9259;48.194;16.322;2023-01-19T14:44:15;28.83;;;12.67;;
18265;SDS011;9259;48.194;16.322;2023-01-19T14:46:45;34.87;;;13.43;;
18265;SDS011;9259;48.194;16.322;2023-01-19T14:49:16;28.80;;;12.83;;
18265;SDS011;9259;48.194;16.322;2023-01-19T14:51:47;27.13;;;12.43;;
18265;SDS011;9259;48.194;16.322;2023-01-19T14:54:16;26.53;;;13.40;;
18265;SDS011;9259;48.194;16.322;2023-01-19T14:56:45;32.73;;;13.43;;
18265;SDS011;9259;48.194;16.322;2023-01-19T14:59:13;25.67;;;12.87;;
18265;SDS011;9259;48.194;16.322;2023-01-19T15:01:41;27.17;;;14.03;;
18265;SDS011;9259;48.194;16.322;2023-01-19T15:04:09;30.73;;;13.90;;
18265;SDS011;9259;48.194;16.322;2023-01-19T15:06:38;28.10;;;12.47;;
18265;SDS011;9259;48.194;16.322;2023-01-19T15:09:12;29.90;;;14.47;;
18265;SDS011;9259;48.194;16.322;2023-01-19T15:11:41;29.77;;;14.00;;
18265;SDS011;9259;48.194;16.322;2023-01-19T15:14:10;27.40;;;11.90;;
18265;SDS011;9259;48.194;16.322;2023-01-19T15:16:39;30.73;;;14.20;;
18265;SDS011;9259;48.194;16.322;2023-01-19T15:19:09;27.97;;;12.97;;
18265;SDS011;9259;48.194;16.322;2023-01-19T15:21:38;28.37;;;12.90;;
18265;SDS011;9259;48.194;16.322;2023-01-19T15:24:07;29.10;;;13.43;;
18265;SDS011;9259;48.194;16.322;2023-01-19T15:26:38;27.57;;;13.10;;